createdAt,value
2017-09-16T00:00:49.683Z,99.30
2017-09-16T00:03:17.283Z,99.30
2017-09-16T00:05:45.775Z,99.30
2017-09-16T00:08:13.339Z,99.30
2017-09-16T00:10:40.858Z,99.00
2017-09-16T00:13:08.574Z,98.90
2017-09-16T00:15:36.076Z,98.70
2017-09-16T00:18:04.599Z,98.50
2017-09-16T00:20:32.103Z,98.60
2017-09-16T00:23:00.554Z,98.40
2017-09-16T00:25:28.294Z,98.30
2017-09-16T00:27:55.811Z,98.10
2017-09-16T00:30:23.307Z,98.20
2017-09-16T00:32:51.790Z,98.40
2017-09-16T00:35:19.675Z,99.00
2017-09-16T00:37:47.195Z,98.60
2017-09-16T00:40:15.590Z,99.00
2017-09-16T00:42:43.963Z,98.90
2017-09-16T00:45:12.255Z,99.00
2017-09-16T00:47:40.754Z,99.00
2017-09-16T00:50:08.363Z,98.90
2017-09-16T00:52:35.883Z,98.90
2017-09-16T00:55:03.566Z,98.90
2017-09-16T00:57:31.199Z,98.90
2017-09-16T00:59:58.726Z,98.80
2017-09-16T01:02:26.292Z,98.60
2017-09-16T01:04:53.846Z,98.60
2017-09-16T01:07:21.340Z,99.30
2017-09-16T01:09:48.851Z,99.40
2017-09-16T01:12:17.306Z,99.50
2017-09-16T01:14:44.822Z,99.50
2017-09-16T01:17:12.314Z,99.50
2017-09-16T01:19:39.826Z,99.20
2017-09-16T01:22:07.374Z,99.40
2017-09-16T01:24:34.934Z,99.30
2017-09-16T01:27:03.159Z,99.20
2017-09-16T01:29:30.766Z,99.20
2017-09-16T01:31:58.331Z,99.40
2017-09-16T01:34:26.604Z,99.40
2017-09-16T01:36:54.723Z,99.50
2017-09-16T01:39:22.234Z,99.80
2017-09-16T01:41:49.894Z,99.80
2017-09-16T01:44:17.455Z,99.80
2017-09-16T01:46:44.950Z,99.70
2017-09-16T01:49:12.459Z,99.50
2017-09-16T01:51:40.718Z,99.60
2017-09-16T01:54:09.063Z,99.60
2017-09-16T01:56:36.579Z,99.70
2017-09-16T01:59:05.058Z,99.70
2017-09-16T02:01:32.613Z,99.70
2017-09-16T02:04:00.902Z,99.90
2017-09-16T02:06:28.398Z,99.80
2017-09-16T02:08:56.779Z,99.90
2017-09-16T02:11:24.388Z,99.80
2017-09-16T02:13:52.718Z,99.60
2017-09-16T02:16:20.239Z,99.50
2017-09-16T02:18:47.781Z,99.60
2017-09-16T02:21:15.295Z,99.50
2017-09-16T02:23:43.518Z,99.30
2017-09-16T02:26:11.075Z,99.20
2017-09-16T02:28:39.287Z,99.20
2017-09-16T02:31:06.794Z,99.20
2017-09-16T02:33:35.783Z,99.40
2017-09-16T02:36:04.176Z,99.60
2017-09-16T02:38:32.455Z,99.60
2017-09-16T02:41:00.126Z,99.50
2017-09-16T02:43:27.621Z,99.40
2017-09-16T02:45:55.231Z,99.30
2017-09-16T02:48:23.512Z,99.30
2017-09-16T02:50:51.807Z,99.70
2017-09-16T02:53:19.386Z,99.40
2017-09-16T02:55:46.895Z,99.40
2017-09-16T02:58:16.751Z,99.10
2017-09-16T03:00:44.262Z,99.10
2017-09-16T03:03:12.523Z,99.60
2017-09-16T03:05:41.706Z,99.40
2017-09-16T03:08:09.826Z,99.30
2017-09-16T03:10:37.379Z,99.40
2017-09-16T03:13:04.891Z,99.30
2017-09-16T03:15:32.382Z,99.50
2017-09-16T03:18:00.666Z,99.90
2017-09-16T03:20:28.159Z,99.90
2017-09-16T03:22:55.677Z,99.90
2017-09-16T03:25:24.046Z,99.50
2017-09-16T03:27:52.325Z,99.40
2017-09-16T03:30:20.585Z,99.50
2017-09-16T03:32:48.269Z,99.50
2017-09-16T03:35:17.338Z,99.20
2017-09-16T03:37:44.941Z,99.20
2017-09-16T03:40:12.487Z,99.10
2017-09-16T03:42:39.995Z,99.00
2017-09-16T03:45:07.602Z,98.90
2017-09-16T03:47:35.883Z,99.00
2017-09-16T03:50:03.391Z,99.00
2017-09-16T03:52:30.999Z,99.00
2017-09-16T03:54:58.883Z,98.90
2017-09-16T03:57:26.383Z,98.70
2017-09-16T03:59:53.890Z,98.90
2017-09-16T04:02:33.317Z,98.80
2017-09-16T04:05:01.555Z,98.80
2017-09-16T04:07:29.055Z,99.20
2017-09-16T04:09:57.206Z,99.40
2017-09-16T04:12:25.702Z,99.60
2017-09-16T04:14:53.366Z,99.60
2017-09-16T04:17:20.865Z,99.50
2017-09-16T04:19:48.374Z,99.40
2017-09-16T04:22:16.655Z,99.30
2017-09-16T04:24:44.279Z,99.30
2017-09-16T04:27:11.875Z,99.20
2017-09-16T04:29:39.391Z,98.90
2017-09-16T04:32:06.994Z,99.00
2017-09-16T04:34:34.491Z,99.20
2017-09-16T04:37:02.005Z,99.30
2017-09-16T04:39:30.282Z,99.20
2017-09-16T04:41:57.846Z,99.20
2017-09-16T04:44:25.338Z,99.40
2017-09-16T04:46:52.863Z,99.30
2017-09-16T04:49:20.363Z,99.10
2017-09-16T04:51:47.883Z,99.00
2017-09-16T04:54:15.415Z,99.20
2017-09-16T04:56:43.701Z,99.80
2017-09-16T04:59:11.986Z,99.90
2017-09-16T05:01:39.542Z,99.80
2017-09-16T05:04:07.136Z,99.80
2017-09-16T05:06:34.631Z,99.80
2017-09-16T05:09:02.123Z,99.40
2017-09-16T05:11:29.679Z,99.40
2017-09-16T05:13:57.170Z,99.30
2017-09-16T05:16:24.683Z,99.50
2017-09-16T05:18:52.942Z,99.20
2017-09-16T05:21:20.531Z,99.10
2017-09-16T05:23:48.087Z,99.50
2017-09-16T05:26:15.596Z,99.40
2017-09-16T05:28:43.090Z,99.60
2017-09-16T05:31:11.379Z,99.30
2017-09-16T05:33:38.991Z,99.30
2017-09-16T05:36:07.242Z,99.20
2017-09-16T05:38:35.042Z,99.20
2017-09-16T05:41:02.552Z,99.30
2017-09-16T05:43:30.044Z,99.70
2017-09-16T05:45:58.303Z,99.90
2017-09-16T05:48:25.799Z,99.90
2017-09-16T05:50:53.295Z,99.90
2017-09-16T05:53:20.846Z,99.90
2017-09-16T05:55:49.226Z,99.80
2017-09-16T05:58:16.799Z,99.70
2017-09-16T06:00:44.339Z,99.70
2017-09-16T06:03:11.898Z,99.70
2017-09-16T06:05:42.275Z,99.90
2017-09-16T06:08:09.794Z,99.90
2017-09-16T06:10:37.338Z,99.80
2017-09-16T06:13:04.899Z,99.60
2017-09-16T06:15:32.394Z,99.50
2017-09-16T06:18:00.007Z,99.50
2017-09-16T06:20:28.268Z,99.30
2017-09-16T06:22:56.551Z,99.40
2017-09-16T06:25:24.851Z,99.50
2017-09-16T06:27:52.407Z,99.50
2017-09-16T06:30:19.971Z,99.90
2017-09-16T06:32:47.498Z,99.70
2017-09-16T06:35:15.802Z,99.90
2017-09-16T06:37:44.050Z,99.90
2017-09-16T06:40:11.554Z,99.90
2017-09-16T06:42:39.091Z,99.90
2017-09-16T06:45:06.603Z,99.90
2017-09-16T06:47:34.211Z,99.40
2017-09-16T06:50:01.774Z,99.60
2017-09-16T06:52:29.281Z,99.80
2017-09-16T06:54:56.859Z,99.60
2017-09-16T06:57:24.362Z,99.70
2017-09-16T06:59:51.883Z,99.40
2017-09-16T07:02:20.142Z,99.60
2017-09-16T07:04:47.730Z,99.60
2017-09-16T07:07:16.722Z,99.70
2017-09-16T07:09:45.003Z,99.80
2017-09-16T07:12:12.499Z,99.80
2017-09-16T07:14:40.746Z,99.70
2017-09-16T07:17:08.300Z,99.50
2017-09-16T07:19:36.674Z,99.30
2017-09-16T07:22:05.047Z,98.90
2017-09-16T07:24:32.544Z,98.80
2017-09-16T07:27:00.168Z,98.60
2017-09-16T07:29:28.342Z,98.00
2017-09-16T07:31:55.854Z,97.90
2017-09-16T07:34:23.462Z,98.20
2017-09-16T07:36:51.636Z,98.20
2017-09-16T07:39:19.190Z,98.20
2017-09-16T07:41:46.751Z,98.00
2017-09-16T07:44:14.311Z,97.90
2017-09-16T07:46:41.831Z,98.00
2017-09-16T07:49:09.639Z,97.70
2017-09-16T07:51:37.907Z,97.80
2017-09-16T07:54:05.775Z,97.30
2017-09-16T07:56:33.295Z,97.70
2017-09-16T07:59:00.799Z,97.70
2017-09-16T08:01:28.314Z,97.50
2017-09-16T08:03:56.522Z,97.40
2017-09-16T08:06:24.035Z,97.50
2017-09-16T08:08:51.638Z,97.50
2017-09-16T08:11:19.151Z,97.50
2017-09-16T08:13:47.487Z,96.50
2017-09-16T08:16:15.727Z,97.20
2017-09-16T08:18:43.224Z,97.00
2017-09-16T08:21:11.591Z,97.00
2017-09-16T08:23:39.142Z,96.90
2017-09-16T08:26:07.374Z,96.00
2017-09-16T08:28:34.974Z,96.50
2017-09-16T08:31:03.359Z,96.40
2017-09-16T08:33:30.915Z,96.30
2017-09-16T08:35:58.414Z,96.30
2017-09-16T08:38:25.926Z,96.20
2017-09-16T08:40:54.224Z,95.50
2017-09-16T08:43:21.743Z,95.50
2017-09-16T08:45:50.006Z,94.50
2017-09-16T08:48:17.598Z,94.50
2017-09-16T08:50:45.095Z,94.10
2017-09-16T08:53:12.615Z,93.70
2017-09-16T08:55:40.176Z,94.10
2017-09-16T08:58:07.690Z,94.00
2017-09-16T09:00:35.195Z,93.10
2017-09-16T09:03:02.707Z,92.70
2017-09-16T09:05:30.315Z,92.40
2017-09-16T09:07:57.935Z,92.80
2017-09-16T09:10:25.430Z,92.40
2017-09-16T09:12:52.987Z,92.90
2017-09-16T09:15:20.487Z,92.60
2017-09-16T09:17:48.006Z,91.40
2017-09-16T09:20:15.510Z,91.90
2017-09-16T09:22:43.028Z,91.60
2017-09-16T09:25:10.574Z,91.90
2017-09-16T09:27:38.106Z,92.90
2017-09-16T09:30:06.375Z,91.50
2017-09-16T09:32:33.970Z,91.50
2017-09-16T09:35:01.483Z,92.10
2017-09-16T09:37:28.983Z,91.70
2017-09-16T09:39:56.546Z,91.30
2017-09-16T09:42:24.819Z,90.90
2017-09-16T09:44:52.382Z,90.50
2017-09-16T09:47:19.882Z,90.90
2017-09-16T09:49:47.398Z,90.90
2017-09-16T09:52:14.955Z,91.10
2017-09-16T09:54:42.479Z,90.80
2017-09-16T09:57:10.089Z,90.70
2017-09-16T09:59:37.826Z,90.10
2017-09-16T10:02:06.270Z,90.60
2017-09-16T10:04:34.595Z,90.70
2017-09-16T10:07:02.168Z,91.10
2017-09-16T10:09:29.687Z,90.00
2017-09-16T10:11:57.982Z,90.20
2017-09-16T10:14:25.502Z,90.10
2017-09-16T10:16:53.003Z,89.30
2017-09-16T10:19:20.558Z,89.50
2017-09-16T10:21:48.118Z,89.40
2017-09-16T10:24:15.651Z,88.10
2017-09-16T10:26:43.779Z,87.10
2017-09-16T10:29:11.281Z,84.40
2017-09-16T10:31:38.871Z,82.90
2017-09-16T10:34:06.367Z,84.90
2017-09-16T10:36:33.877Z,84.70
2017-09-16T10:39:02.143Z,87.10
2017-09-16T10:41:30.422Z,87.30
2017-09-16T10:43:58.684Z,86.10
2017-09-16T10:46:26.198Z,86.10
2017-09-16T10:48:53.704Z,85.10
2017-09-16T10:51:21.999Z,80.00
2017-09-16T10:53:49.663Z,80.00
2017-09-16T10:56:17.262Z,77.50
2017-09-16T10:58:44.778Z,77.60
2017-09-16T11:01:12.295Z,79.10
2017-09-16T11:03:39.811Z,80.30
2017-09-16T11:06:07.522Z,76.10
2017-09-16T11:08:35.114Z,78.10
2017-09-16T11:11:02.734Z,79.10
2017-09-16T11:13:30.230Z,78.80
2017-09-16T11:15:59.226Z,80.00
2017-09-16T11:18:26.722Z,80.00
2017-09-16T11:20:54.300Z,77.00
2017-09-16T11:23:22.623Z,75.10
2017-09-16T11:25:50.142Z,74.00
2017-09-16T11:28:17.743Z,73.40
2017-09-16T11:30:45.246Z,77.00
2017-09-16T11:33:12.758Z,77.00
2017-09-16T11:35:40.310Z,76.70
2017-09-16T11:38:07.871Z,78.10
2017-09-16T11:40:35.366Z,77.10
2017-09-16T11:43:03.698Z,77.40
2017-09-16T11:45:32.802Z,75.20
2017-09-16T11:48:00.358Z,75.20
2017-09-16T11:50:27.923Z,75.00
2017-09-16T11:52:55.479Z,72.30
2017-09-16T11:55:23.039Z,76.20
2017-09-16T11:57:50.704Z,75.80
2017-09-16T12:00:18.367Z,79.00
2017-09-16T12:02:45.879Z,80.00
2017-09-16T12:05:13.481Z,78.80
2017-09-16T12:07:41.016Z,79.70
2017-09-16T12:10:09.319Z,78.80
2017-09-16T12:12:36.838Z,78.70
2017-09-16T12:15:04.435Z,80.80
2017-09-16T12:17:31.954Z,82.50
2017-09-16T12:19:59.546Z,82.50
2017-09-16T12:22:27.826Z,79.50
2017-09-16T12:24:56.158Z,79.60
2017-09-16T12:27:23.781Z,82.80
2017-09-16T12:29:51.302Z,80.80
2017-09-16T12:32:19.587Z,81.70
2017-09-16T12:34:47.863Z,80.00
2017-09-16T12:37:16.171Z,83.50
2017-09-16T12:39:43.727Z,83.50
2017-09-16T12:42:11.267Z,82.90
2017-09-16T12:44:39.523Z,83.40
2017-09-16T12:47:07.787Z,89.60
2017-09-16T12:49:36.071Z,90.50
2017-09-16T12:52:04.339Z,90.60
2017-09-16T12:54:32.647Z,92.30
2017-09-16T12:57:00.207Z,92.30
2017-09-16T12:59:27.728Z,91.80
2017-09-16T13:01:56.147Z,93.10
2017-09-16T13:04:23.758Z,93.10
2017-09-16T13:06:51.358Z,94.80
2017-09-16T13:09:19.643Z,95.30
2017-09-16T13:11:47.139Z,95.20
2017-09-16T13:14:14.763Z,95.30
2017-09-16T13:16:42.990Z,95.90
2017-09-16T13:19:10.591Z,98.00
2017-09-16T13:21:38.825Z,98.30
2017-09-16T13:24:06.327Z,96.60
2017-09-16T13:26:33.986Z,95.00
2017-09-16T13:29:01.547Z,94.70
2017-09-16T13:31:29.119Z,96.00
2017-09-16T13:33:56.615Z,95.70
2017-09-16T13:36:24.983Z,96.10
2017-09-16T13:38:52.480Z,97.50
2017-09-16T13:41:20.771Z,99.40
2017-09-16T13:43:48.267Z,99.40
2017-09-16T13:46:15.778Z,99.90
2017-09-16T13:48:44.268Z,99.30
2017-09-16T13:51:11.787Z,99.30
2017-09-16T13:53:39.294Z,99.90
2017-09-16T13:56:06.810Z,99.70
2017-09-16T13:58:34.419Z,99.90
2017-09-16T14:01:01.958Z,99.90
2017-09-16T14:03:29.454Z,99.90
2017-09-16T14:05:56.974Z,99.90
2017-09-16T14:08:24.482Z,99.90
2017-09-16T14:10:51.978Z,99.90
2017-09-16T14:13:20.258Z,99.90
2017-09-16T14:15:48.519Z,99.90
2017-09-16T14:18:16.811Z,99.90
2017-09-16T14:20:45.095Z,99.90
2017-09-16T14:23:12.711Z,99.90
2017-09-16T14:25:40.210Z,99.90
2017-09-16T14:28:08.691Z,99.90
2017-09-16T14:30:36.255Z,99.90
2017-09-16T14:33:03.780Z,99.90
2017-09-16T14:35:31.278Z,99.90
2017-09-16T14:37:58.794Z,99.90
2017-09-16T14:40:26.294Z,99.20
2017-09-16T14:42:53.806Z,98.40
2017-09-16T14:45:21.306Z,99.10
2017-09-16T14:47:48.841Z,98.60
2017-09-16T14:50:17.283Z,99.00
2017-09-16T14:52:44.803Z,99.00
2017-09-16T14:55:13.234Z,99.80
2017-09-16T14:57:40.754Z,99.90
2017-09-16T15:00:08.304Z,97.40
2017-09-16T15:02:35.818Z,98.30
2017-09-16T15:05:04.131Z,99.50
2017-09-16T15:07:31.648Z,99.50
2017-09-16T15:09:59.157Z,99.90
2017-09-16T15:12:26.690Z,99.20
2017-09-16T15:14:54.955Z,99.80
2017-09-16T15:17:23.251Z,99.90
2017-09-16T15:19:50.811Z,99.90
2017-09-16T15:22:18.306Z,99.90
2017-09-16T15:24:45.818Z,99.90
2017-09-16T15:27:14.103Z,99.90
2017-09-16T15:29:41.666Z,99.90
2017-09-16T15:32:09.163Z,99.90
2017-09-16T15:34:36.681Z,99.90
2017-09-16T15:37:04.235Z,99.90
2017-09-16T15:39:31.746Z,99.90
2017-09-16T15:41:59.663Z,99.90
2017-09-16T15:44:27.178Z,99.90
2017-09-16T15:46:54.678Z,99.90
2017-09-16T15:49:22.195Z,99.90
2017-09-16T15:51:49.795Z,99.90
2017-09-16T15:54:17.315Z,99.90
2017-09-16T15:56:44.833Z,99.90
2017-09-16T15:59:12.378Z,99.90
2017-09-16T16:01:39.895Z,99.90
2017-09-16T16:04:07.401Z,99.90
2017-09-16T16:06:34.944Z,99.90
2017-09-16T16:09:02.443Z,99.90
2017-09-16T16:11:29.963Z,99.90
2017-09-16T16:13:57.466Z,99.90
2017-09-16T16:16:24.982Z,99.90
2017-09-16T16:18:53.038Z,99.90
2017-09-16T16:21:21.426Z,99.90
2017-09-16T16:23:48.928Z,99.90
2017-09-16T16:26:16.495Z,99.90
2017-09-16T16:28:44.702Z,99.90
2017-09-16T16:31:12.999Z,99.90
2017-09-16T16:33:40.654Z,99.90
2017-09-16T16:36:08.215Z,99.90
2017-09-16T16:38:35.971Z,99.90
2017-09-16T16:41:03.559Z,99.90
2017-09-16T16:43:31.054Z,99.90
2017-09-16T16:45:58.571Z,99.90
2017-09-16T16:48:26.066Z,99.90
2017-09-16T16:50:53.667Z,99.90
2017-09-16T16:53:21.162Z,99.90
2017-09-16T16:55:48.679Z,99.90
2017-09-16T16:58:16.182Z,99.90
2017-09-16T17:00:44.107Z,99.90
2017-09-16T17:03:11.602Z,99.90
2017-09-16T17:05:39.140Z,99.90
2017-09-16T17:08:06.642Z,99.90
2017-09-16T17:10:34.138Z,99.90
2017-09-16T17:13:01.699Z,99.90
2017-09-16T17:15:29.204Z,99.90
2017-09-16T17:17:57.164Z,99.90
2017-09-16T17:20:24.783Z,99.90
2017-09-16T17:22:52.326Z,99.90
2017-09-16T17:25:19.827Z,99.90
2017-09-16T17:27:47.346Z,99.90
2017-09-16T17:30:15.610Z,99.90
2017-09-16T17:32:43.134Z,99.90
2017-09-16T17:35:10.647Z,99.90
2017-09-16T17:37:38.938Z,99.90
2017-09-16T17:40:06.438Z,99.90
2017-09-16T17:42:34.046Z,99.90
2017-09-16T17:45:01.554Z,99.90
2017-09-16T17:47:29.075Z,99.90
2017-09-16T17:49:56.583Z,99.90
2017-09-16T17:52:24.182Z,99.90
2017-09-16T17:54:51.679Z,99.90
2017-09-16T17:57:19.183Z,99.90
2017-09-16T17:59:48.122Z,99.90
2017-09-16T18:02:15.623Z,99.90
2017-09-16T18:04:43.902Z,99.90
2017-09-16T18:07:12.987Z,99.90
2017-09-16T18:09:40.502Z,99.90
2017-09-16T18:12:08.227Z,99.90
2017-09-16T18:14:36.515Z,99.90
2017-09-16T18:17:04.016Z,99.90
2017-09-16T18:19:31.526Z,99.90
2017-09-16T18:21:59.083Z,99.90
2017-09-16T18:24:26.603Z,99.90
2017-09-16T18:26:54.199Z,99.90
2017-09-16T18:29:21.760Z,99.90
2017-09-16T18:31:49.323Z,99.90
2017-09-16T18:34:16.898Z,99.90
2017-09-16T18:36:44.394Z,99.90
2017-09-16T18:39:11.994Z,99.90
2017-09-16T18:41:39.560Z,99.90
2017-09-16T18:44:07.114Z,99.90
2017-09-16T18:46:34.619Z,99.90
2017-09-16T18:49:02.130Z,99.90
2017-09-16T18:51:29.630Z,99.90
2017-09-16T18:53:57.250Z,99.90
2017-09-16T18:56:24.758Z,99.90
2017-09-16T18:58:52.283Z,99.90
2017-09-16T19:01:19.829Z,99.90
2017-09-16T19:03:47.387Z,99.90
2017-09-16T19:06:14.956Z,99.90
2017-09-16T19:08:42.467Z,99.90
2017-09-16T19:11:10.739Z,99.90
2017-09-16T19:13:38.340Z,99.90
2017-09-16T19:16:05.894Z,99.90
2017-09-16T19:18:33.452Z,99.90
2017-09-16T19:21:01.423Z,99.90
2017-09-16T19:23:28.926Z,99.90
2017-09-16T19:25:56.438Z,99.90
2017-09-16T19:28:23.954Z,99.90
2017-09-16T19:30:51.471Z,99.90
2017-09-16T19:33:19.010Z,99.90
2017-09-16T19:35:46.571Z,99.90
2017-09-16T19:38:14.066Z,99.90
2017-09-16T19:40:41.591Z,99.90
2017-09-16T19:43:09.147Z,99.90
2017-09-16T19:45:36.701Z,99.90
2017-09-16T19:48:04.203Z,99.90
2017-09-16T19:50:31.822Z,99.90
2017-09-16T19:52:59.318Z,99.90
2017-09-16T19:55:26.854Z,99.90
2017-09-16T19:57:54.355Z,99.90
2017-09-16T20:00:21.863Z,99.90
2017-09-16T20:02:49.379Z,99.90
2017-09-16T20:05:16.968Z,99.90
2017-09-16T20:07:44.491Z,99.90
2017-09-16T20:10:12.087Z,99.90
2017-09-16T20:12:39.634Z,99.90
2017-09-16T20:15:07.927Z,99.90
2017-09-16T20:17:35.489Z,99.90
2017-09-16T20:20:03.039Z,99.90
2017-09-16T20:22:30.564Z,99.90
2017-09-16T20:24:58.180Z,99.90
2017-09-16T20:27:25.922Z,99.90
2017-09-16T20:29:53.487Z,99.90
2017-09-16T20:32:21.147Z,99.90
2017-09-16T20:34:48.656Z,99.90
2017-09-16T20:37:16.171Z,99.90
2017-09-16T20:39:43.677Z,99.90
2017-09-16T20:42:11.199Z,99.90
2017-09-16T20:44:38.699Z,99.90
2017-09-16T20:47:06.219Z,99.90
2017-09-16T20:49:33.720Z,99.90
2017-09-16T20:52:02.027Z,99.90
2017-09-16T20:54:29.584Z,99.90
2017-09-16T20:56:57.142Z,99.90
2017-09-16T20:59:24.703Z,99.90
2017-09-16T21:01:52.265Z,99.90
2017-09-16T21:04:20.227Z,99.90
2017-09-16T21:06:47.783Z,99.90
2017-09-16T21:09:16.051Z,99.90
2017-09-16T21:11:44.310Z,99.90
2017-09-16T21:14:11.906Z,99.90
2017-09-16T21:16:39.402Z,99.90
2017-09-16T21:19:07.024Z,99.90
2017-09-16T21:21:34.525Z,99.90
2017-09-16T21:24:02.041Z,99.90
2017-09-16T21:26:29.547Z,99.90
2017-09-16T21:28:57.059Z,99.90
2017-09-16T21:31:25.071Z,99.90
2017-09-16T21:33:52.582Z,99.90
2017-09-16T21:36:20.403Z,99.90
2017-09-16T21:38:47.914Z,99.90
2017-09-16T21:41:15.454Z,99.90
2017-09-16T21:43:43.038Z,99.90
2017-09-16T21:46:10.535Z,99.90
2017-09-16T21:48:38.133Z,99.90
2017-09-16T21:51:05.894Z,99.90
2017-09-16T21:53:33.458Z,99.90
2017-09-16T21:56:00.950Z,99.90
2017-09-16T21:58:28.447Z,99.90
2017-09-16T22:00:56.723Z,99.90
2017-09-16T22:03:24.222Z,99.90
2017-09-16T22:05:51.735Z,99.90
2017-09-16T22:08:19.231Z,99.90
2017-09-16T22:10:46.747Z,99.90
2017-09-16T22:13:14.248Z,99.90
2017-09-16T22:15:41.762Z,99.90
2017-09-16T22:18:10.763Z,99.90
2017-09-16T22:20:39.047Z,99.90
2017-09-16T22:23:07.311Z,99.90
2017-09-16T22:25:34.894Z,99.90
2017-09-16T22:28:02.387Z,99.90
2017-09-16T22:30:29.899Z,99.90
2017-09-16T22:32:58.186Z,99.90
2017-09-16T22:35:25.748Z,99.90
2017-09-16T22:37:53.244Z,99.90
2017-09-16T22:40:20.755Z,99.90
2017-09-16T22:42:48.326Z,99.90
2017-09-16T22:45:15.838Z,99.90
2017-09-16T22:47:44.155Z,99.90
2017-09-16T22:50:11.663Z,99.90
2017-09-16T22:52:39.159Z,99.90
2017-09-16T22:55:07.450Z,99.90
2017-09-16T22:57:34.951Z,99.90
2017-09-16T23:00:02.476Z,99.90
2017-09-16T23:02:30.026Z,99.90
2017-09-16T23:04:57.518Z,99.90
2017-09-16T23:07:25.906Z,99.90
2017-09-16T23:09:53.407Z,99.90
2017-09-16T23:12:21.687Z,99.90
2017-09-16T23:14:50.106Z,99.90
2017-09-16T23:17:17.731Z,99.90
2017-09-16T23:19:45.223Z,99.90
2017-09-16T23:22:12.743Z,99.90
2017-09-16T23:24:40.302Z,99.90
2017-09-16T23:27:07.863Z,99.90
2017-09-16T23:29:35.360Z,99.90
2017-09-16T23:32:02.879Z,99.90
2017-09-16T23:34:30.374Z,99.90
2017-09-16T23:36:57.895Z,99.90
2017-09-16T23:39:25.554Z,99.90
2017-09-16T23:41:53.115Z,99.90
2017-09-16T23:44:20.611Z,99.90
2017-09-16T23:46:48.235Z,99.90
2017-09-16T23:49:15.795Z,99.90
2017-09-16T23:51:43.350Z,99.90
2017-09-16T23:54:10.847Z,99.90
2017-09-16T23:56:38.466Z,99.90
2017-09-16T23:59:06.830Z,99.90
